createdAt,value
2018-07-27T00:01:35.798Z,3.63
2018-07-27T00:04:04.623Z,3.73
2018-07-27T00:06:33.446Z,3.40
2018-07-27T00:09:02.245Z,3.87
2018-07-27T00:11:31.033Z,3.73
2018-07-27T00:13:59.829Z,4.20
2018-07-27T00:16:28.678Z,3.60
2018-07-27T00:18:57.493Z,3.90
2018-07-27T00:21:26.322Z,3.90
2018-07-27T00:23:55.107Z,3.67
2018-07-27T00:26:23.901Z,4.33
2018-07-27T00:28:52.709Z,3.80
2018-07-27T00:31:21.518Z,3.73
2018-07-27T00:33:50.322Z,3.83
2018-07-27T00:36:19.126Z,3.80
2018-07-27T00:38:47.922Z,3.63
2018-07-27T00:41:16.737Z,3.60
2018-07-27T00:43:45.522Z,4.03
2018-07-27T00:46:14.493Z,3.80
2018-07-27T00:48:43.232Z,4.13
2018-07-27T00:51:12.009Z,3.60
2018-07-27T00:53:41.007Z,4.23
2018-07-27T00:56:09.946Z,3.70
2018-07-27T00:58:38.798Z,3.90
2018-07-27T01:01:07.767Z,3.80
2018-07-27T01:03:36.655Z,3.53
2018-07-27T01:06:05.582Z,3.30
2018-07-27T01:08:34.518Z,3.67
2018-07-27T01:11:03.421Z,3.70
2018-07-27T01:13:32.295Z,3.57
2018-07-27T01:16:01.208Z,3.80
2018-07-27T01:18:30.089Z,3.57
2018-07-27T01:20:59.029Z,3.33
2018-07-27T01:23:27.926Z,3.53
2018-07-27T01:25:56.777Z,3.10
2018-07-27T01:28:25.677Z,3.50
2018-07-27T01:30:54.622Z,3.40
2018-07-27T01:33:23.522Z,3.10
2018-07-27T01:35:52.421Z,2.70
2018-07-27T01:38:21.293Z,3.00
2018-07-27T01:40:50.403Z,2.80
2018-07-27T01:43:19.279Z,3.00
2018-07-27T01:45:48.218Z,3.00
2018-07-27T01:48:17.117Z,3.13
2018-07-27T01:50:46.009Z,2.63
2018-07-27T01:53:14.901Z,2.83
2018-07-27T01:55:43.805Z,2.40
2018-07-27T01:58:12.689Z,2.50
2018-07-27T02:00:41.618Z,2.47
2018-07-27T02:03:10.510Z,2.03
2018-07-27T02:05:39.396Z,2.70
2018-07-27T02:08:08.295Z,2.43
2018-07-27T02:10:37.245Z,2.90
2018-07-27T02:13:06.211Z,2.77
2018-07-27T02:15:35.025Z,2.97
2018-07-27T02:18:03.945Z,3.10
2018-07-27T02:20:32.906Z,2.60
2018-07-27T02:23:01.774Z,3.23
2018-07-27T02:25:30.677Z,3.30
2018-07-27T02:27:59.698Z,3.17
2018-07-27T02:30:28.854Z,3.03
2018-07-27T02:32:57.744Z,3.20
2018-07-27T02:35:26.657Z,2.30
2018-07-27T02:37:55.529Z,2.40
2018-07-27T02:40:24.441Z,2.90
2018-07-27T02:42:53.375Z,2.50
2018-07-27T02:45:22.243Z,2.60
2018-07-27T02:47:51.128Z,2.63
2018-07-27T02:50:20.888Z,2.90
2018-07-27T02:52:50.172Z,2.63
2018-07-27T02:55:19.021Z,2.50
2018-07-27T02:57:47.875Z,2.63
2018-07-27T03:00:16.810Z,2.90
2018-07-27T03:02:45.766Z,2.63
2018-07-27T03:05:14.608Z,2.63
2018-07-27T03:07:43.566Z,3.03
2018-07-27T03:10:12.481Z,3.13
2018-07-27T03:12:41.370Z,3.83
2018-07-27T03:15:10.222Z,2.63
2018-07-27T03:17:39.118Z,3.23
2018-07-27T03:20:08.072Z,3.37
2018-07-27T03:22:37.027Z,2.90
2018-07-27T03:25:06.201Z,3.50
2018-07-27T03:27:35.149Z,2.90
2018-07-27T03:30:04.226Z,3.17
2018-07-27T03:32:33.114Z,3.20
2018-07-27T03:35:02.021Z,2.70
2018-07-27T03:37:30.928Z,2.63
2018-07-27T03:39:59.801Z,2.47
2018-07-27T03:42:28.690Z,2.67
2018-07-27T03:44:57.597Z,2.77
2018-07-27T03:47:26.484Z,2.87
2018-07-27T03:49:55.400Z,3.30
2018-07-27T03:52:24.283Z,3.10
2018-07-27T03:54:53.271Z,3.40
2018-07-27T03:57:22.209Z,2.47
2018-07-27T03:59:51.051Z,2.50
2018-07-27T04:02:20.018Z,3.20
2018-07-27T04:04:48.916Z,2.83
2018-07-27T04:07:17.809Z,3.13
2018-07-27T04:09:46.749Z,3.07
2018-07-27T04:12:15.604Z,3.60
2018-07-27T04:14:44.542Z,2.77
2018-07-27T04:17:13.499Z,3.40
2018-07-27T04:19:42.401Z,2.83
2018-07-27T04:22:11.310Z,2.27
2018-07-27T04:24:40.263Z,2.73
2018-07-27T04:27:09.103Z,2.20
2018-07-27T04:29:37.944Z,2.30
2018-07-27T04:32:06.854Z,2.60
2018-07-27T04:34:35.643Z,2.50
2018-07-27T04:37:04.444Z,2.63
2018-07-27T04:39:33.264Z,2.67
2018-07-27T04:42:02.095Z,2.67
2018-07-27T04:44:30.854Z,2.67
2018-07-27T04:46:59.675Z,2.30
2018-07-27T04:49:28.601Z,2.53
2018-07-27T04:51:57.366Z,2.20
2018-07-27T04:54:26.242Z,2.37
2018-07-27T04:56:55.218Z,2.50
2018-07-27T04:59:24.032Z,2.20
2018-07-27T05:01:52.853Z,2.00
2018-07-27T05:04:21.668Z,2.23
2018-07-27T05:06:50.515Z,2.20
2018-07-27T05:09:19.574Z,2.23
2018-07-27T05:11:48.455Z,2.33
2018-07-27T05:14:17.364Z,2.23
2018-07-27T05:16:46.276Z,2.10
2018-07-27T05:19:15.143Z,1.80
2018-07-27T05:21:43.966Z,2.07
2018-07-27T05:24:12.762Z,1.80
2018-07-27T05:26:41.621Z,1.80
2018-07-27T05:29:10.446Z,2.20
2018-07-27T05:31:39.309Z,1.90
2018-07-27T05:34:08.071Z,2.00
2018-07-27T05:36:36.828Z,2.07
2018-07-27T05:39:08.941Z,1.90
2018-07-27T05:41:38.050Z,1.90
2018-07-27T05:44:07.065Z,2.20
2018-07-27T05:46:35.846Z,2.00
2018-07-27T05:49:04.717Z,2.30
2018-07-27T05:51:33.558Z,2.13
2018-07-27T05:54:02.379Z,1.90
2018-07-27T05:56:31.197Z,2.00
2018-07-27T05:58:59.977Z,2.20
2018-07-27T06:01:28.800Z,1.93
2018-07-27T06:03:57.618Z,2.10
2018-07-27T06:06:26.442Z,1.90
2018-07-27T06:08:55.294Z,2.00
2018-07-27T06:11:24.172Z,1.93
2018-07-27T06:13:53.048Z,1.70
2018-07-27T06:16:21.842Z,1.90
2018-07-27T06:18:50.637Z,1.80
2018-07-27T06:21:19.458Z,2.13
2018-07-27T06:23:48.288Z,1.83
2018-07-27T06:26:17.142Z,2.00
2018-07-27T06:28:45.990Z,1.80
2018-07-27T06:31:14.823Z,1.73
2018-07-27T06:33:43.683Z,1.70
2018-07-27T06:36:12.484Z,1.80
2018-07-27T06:38:41.306Z,1.80
2018-07-27T06:41:10.127Z,1.80
2018-07-27T06:43:38.915Z,1.80
2018-07-27T06:46:07.715Z,1.47
2018-07-27T06:48:36.534Z,1.67
2018-07-27T06:51:05.373Z,1.70
2018-07-27T06:53:34.221Z,1.77
2018-07-27T06:56:03.055Z,2.00
2018-07-27T06:58:31.879Z,2.03
2018-07-27T07:01:00.715Z,1.90
2018-07-27T07:03:29.721Z,1.97
2018-07-27T07:05:58.565Z,2.07
2018-07-27T07:08:27.355Z,1.70
2018-07-27T07:10:56.180Z,1.77
2018-07-27T07:13:24.982Z,1.60
2018-07-27T07:15:53.802Z,1.80
2018-07-27T07:18:22.780Z,2.00
2018-07-27T07:20:51.609Z,1.70
2018-07-27T07:23:20.422Z,2.20
2018-07-27T07:25:49.533Z,2.00
2018-07-27T07:28:18.096Z,1.77
2018-07-27T07:30:46.946Z,1.60
2018-07-27T07:33:16.060Z,1.70
2018-07-27T07:35:44.855Z,2.07
2018-07-27T07:38:13.689Z,2.00
2018-07-27T07:40:42.510Z,1.80
2018-07-27T07:43:11.308Z,1.70
2018-07-27T07:45:40.127Z,2.20
2018-07-27T07:48:09.114Z,1.80
2018-07-27T07:50:37.924Z,1.70
2018-07-27T07:53:06.794Z,1.60
2018-07-27T07:55:35.594Z,1.90
2018-07-27T07:58:04.395Z,1.90
2018-07-27T08:00:33.195Z,1.50
2018-07-27T08:03:02.045Z,1.80
2018-07-27T08:05:30.827Z,1.87
2018-07-27T08:07:59.627Z,1.63
2018-07-27T08:10:28.438Z,1.70
2018-07-27T08:12:57.203Z,2.00
2018-07-27T08:15:25.950Z,1.70
2018-07-27T08:17:54.689Z,2.00
2018-07-27T08:20:23.514Z,1.80
2018-07-27T08:22:52.289Z,1.60
2018-07-27T08:25:21.033Z,1.67
2018-07-27T08:27:59.467Z,1.50
2018-07-27T08:30:28.273Z,1.67
2018-07-27T08:32:57.085Z,2.10
2018-07-27T08:35:25.855Z,1.60
2018-07-27T08:37:54.604Z,1.40
2018-07-27T08:40:23.388Z,1.70
2018-07-27T08:42:52.156Z,1.40
2018-07-27T08:45:21.120Z,1.67
2018-07-27T08:47:49.842Z,1.43
2018-07-27T08:50:18.634Z,1.80
2018-07-27T08:52:47.382Z,1.90
2018-07-27T08:55:16.143Z,1.57
2018-07-27T08:57:44.925Z,1.43
2018-07-27T09:00:13.759Z,1.67
2018-07-27T09:02:42.528Z,1.67
2018-07-27T09:05:11.293Z,1.70
2018-07-27T09:07:40.084Z,1.30
2018-07-27T09:10:08.914Z,1.40
2018-07-27T09:12:37.707Z,1.20
2018-07-27T09:15:06.581Z,1.40
2018-07-27T09:17:35.409Z,1.23
2018-07-27T09:20:04.306Z,1.10
2018-07-27T09:22:33.081Z,1.83
2018-07-27T09:25:02.037Z,1.30
2018-07-27T09:27:30.744Z,1.40
2018-07-27T09:29:59.533Z,1.40
2018-07-27T09:32:27.890Z,1.43
2018-07-27T09:34:56.669Z,1.50
2018-07-27T09:37:25.514Z,1.40
2018-07-27T09:39:54.282Z,1.20
2018-07-27T09:42:23.048Z,1.40
2018-07-27T09:44:51.903Z,1.17
2018-07-27T09:47:20.673Z,1.23
2018-07-27T09:49:49.470Z,1.30
2018-07-27T09:52:18.286Z,1.30
2018-07-27T09:54:47.058Z,1.20
2018-07-27T09:57:15.848Z,1.70
2018-07-27T09:59:44.650Z,1.70
2018-07-27T10:02:13.426Z,1.33
2018-07-27T10:04:42.225Z,1.30
2018-07-27T10:07:11.018Z,1.20
2018-07-27T10:09:40.633Z,1.13
2018-07-27T10:12:09.404Z,1.27
2018-07-27T10:14:38.165Z,1.20
2018-07-27T10:17:06.956Z,1.30
2018-07-27T10:19:35.713Z,1.20
2018-07-27T10:22:04.513Z,1.30
2018-07-27T10:24:33.269Z,1.63
2018-07-27T10:27:02.102Z,1.07
2018-07-27T10:29:30.867Z,1.03
2018-07-27T10:31:59.662Z,1.13
2018-07-27T10:34:28.605Z,1.17
2018-07-27T10:36:58.053Z,1.83
2018-07-27T10:39:26.819Z,1.27
2018-07-27T10:41:55.594Z,1.43
2018-07-27T10:44:24.557Z,1.40
2018-07-27T10:46:53.336Z,1.50
2018-07-27T10:49:22.133Z,1.20
2018-07-27T10:51:50.880Z,1.07
2018-07-27T10:54:19.641Z,1.10
2018-07-27T10:56:48.465Z,1.07
2018-07-27T10:59:17.241Z,1.10
2018-07-27T11:01:46.001Z,1.30
2018-07-27T11:04:14.769Z,1.40
2018-07-27T11:06:43.533Z,1.07
2018-07-27T11:09:12.295Z,1.40
2018-07-27T11:11:41.784Z,1.10
2018-07-27T11:14:10.577Z,1.43
2018-07-27T11:16:39.386Z,1.23
2018-07-27T11:19:08.247Z,1.13
2018-07-27T11:21:37.117Z,1.67
2018-07-27T11:24:06.027Z,1.30
2018-07-27T11:26:34.859Z,1.40
2018-07-27T11:29:03.714Z,1.43
2018-07-27T11:31:32.592Z,1.40
2018-07-27T11:34:01.435Z,1.30
2018-07-27T11:36:30.278Z,1.40
2018-07-27T11:38:59.095Z,1.40
2018-07-27T11:41:27.930Z,1.33
2018-07-27T11:43:56.749Z,1.70
2018-07-27T11:46:25.895Z,1.17
2018-07-27T11:48:54.706Z,1.30
2018-07-27T11:51:23.564Z,1.10
2018-07-27T11:53:52.362Z,1.27
2018-07-27T11:56:21.196Z,1.60
2018-07-27T11:58:50.045Z,1.27
2018-07-27T12:01:18.993Z,1.20
2018-07-27T12:03:47.873Z,1.37
2018-07-27T12:06:16.713Z,1.30
2018-07-27T12:08:45.546Z,1.20
2018-07-27T12:11:14.376Z,1.23
2018-07-27T12:13:43.200Z,1.60
2018-07-27T12:16:12.030Z,1.37
2018-07-27T12:18:40.810Z,1.30
2018-07-27T12:21:09.781Z,1.47
2018-07-27T12:23:38.598Z,1.53
2018-07-27T12:26:07.419Z,1.73
2018-07-27T12:28:36.480Z,1.80
2018-07-27T12:31:05.322Z,1.40
2018-07-27T12:33:34.170Z,1.40
2018-07-27T12:36:03.075Z,1.37
2018-07-27T12:38:31.910Z,1.30
2018-07-27T12:41:01.401Z,1.20
2018-07-27T12:43:30.415Z,1.47
2018-07-27T12:45:59.237Z,1.20
2018-07-27T12:48:28.051Z,1.40
2018-07-27T12:50:57.021Z,1.40
2018-07-27T12:53:25.804Z,1.43
2018-07-27T12:55:54.622Z,1.30
2018-07-27T12:58:23.556Z,1.87
2018-07-27T13:00:52.378Z,1.20
2018-07-27T13:03:21.149Z,1.20
2018-07-27T13:05:49.941Z,1.30
2018-07-27T13:08:18.752Z,1.40
2018-07-27T13:10:47.632Z,1.23
2018-07-27T13:13:16.446Z,1.30
2018-07-27T13:15:45.240Z,1.00
2018-07-27T13:18:14.043Z,1.23
2018-07-27T13:20:53.234Z,1.20
2018-07-27T13:23:23.999Z,1.20
2018-07-27T13:28:34.080Z,1.50
2018-07-27T13:31:02.942Z,1.30
2018-07-27T13:33:32.144Z,1.20
2018-07-27T13:38:30.604Z,1.10
2018-07-27T13:40:59.602Z,1.30
2018-07-27T13:43:28.484Z,1.10
2018-07-27T13:45:57.621Z,1.40
2018-07-27T13:48:26.938Z,1.27
2018-07-27T13:50:55.734Z,1.20
2018-07-27T13:53:24.546Z,1.03
2018-07-27T13:55:53.330Z,1.10
2018-07-27T13:58:22.110Z,1.30
2018-07-27T14:00:50.897Z,1.20
2018-07-27T14:03:19.702Z,1.33
2018-07-27T14:05:48.509Z,1.30
2018-07-27T14:08:17.306Z,1.20
2018-07-27T14:10:46.256Z,1.20
2018-07-27T14:13:15.109Z,1.40
2018-07-27T14:15:43.927Z,1.30
2018-07-27T14:18:12.719Z,0.93
2018-07-27T14:20:41.509Z,1.17
2018-07-27T14:23:10.302Z,1.10
2018-07-27T14:25:39.119Z,1.20
2018-07-27T14:28:07.913Z,1.20
2018-07-27T14:30:36.755Z,1.10
2018-07-27T14:33:05.637Z,1.20
2018-07-27T14:35:34.446Z,1.17
2018-07-27T14:38:03.237Z,1.20
2018-07-27T14:40:32.094Z,1.10
2018-07-27T14:43:00.910Z,1.27
2018-07-27T14:45:29.720Z,1.30
2018-07-27T14:47:58.509Z,1.20
2018-07-27T14:50:27.289Z,1.30
2018-07-27T14:52:56.099Z,1.37
2018-07-27T14:55:24.905Z,1.20
2018-07-27T14:57:53.756Z,1.10
2018-07-27T15:00:22.579Z,1.23
2018-07-27T15:02:51.394Z,1.20
2018-07-27T15:05:20.244Z,1.00
2018-07-27T15:07:49.089Z,1.10
2018-07-27T15:10:17.927Z,1.20
2018-07-27T15:12:46.729Z,1.00
2018-07-27T15:15:15.562Z,1.23
2018-07-27T15:17:44.370Z,1.20
2018-07-27T15:20:13.303Z,1.10
2018-07-27T15:22:42.092Z,1.50
2018-07-27T15:25:11.130Z,1.60
2018-07-27T15:27:39.910Z,1.17
2018-07-27T15:30:08.721Z,1.20
2018-07-27T15:32:37.750Z,1.27
2018-07-27T15:35:06.707Z,1.00
2018-07-27T15:37:35.519Z,1.17
2018-07-27T15:40:04.424Z,1.57
2018-07-27T15:42:33.244Z,1.20
2018-07-27T15:45:02.050Z,1.00
2018-07-27T15:47:31.099Z,0.90
2018-07-27T15:49:59.894Z,1.20
2018-07-27T15:52:28.705Z,1.10
2018-07-27T15:54:57.509Z,1.00
2018-07-27T15:57:26.291Z,0.87
2018-07-27T15:59:55.100Z,1.30
2018-07-27T16:02:23.933Z,1.07
2018-07-27T16:04:52.735Z,1.27
2018-07-27T16:07:21.553Z,1.10
2018-07-27T16:09:50.372Z,1.20
2018-07-27T16:12:19.245Z,1.00
2018-07-27T16:14:48.155Z,0.87
2018-07-27T16:17:17.093Z,0.90
2018-07-27T16:19:45.895Z,1.40
2018-07-27T16:22:14.720Z,1.10
2018-07-27T16:24:43.672Z,1.33
2018-07-27T16:27:12.489Z,1.10
2018-07-27T16:29:41.328Z,1.07
2018-07-27T16:32:10.153Z,1.30
2018-07-27T16:34:39.025Z,1.40
2018-07-27T16:37:07.855Z,1.20
2018-07-27T16:39:36.703Z,1.07
2018-07-27T16:42:05.678Z,1.23
2018-07-27T16:44:34.477Z,1.20
2018-07-27T16:47:03.293Z,1.10
2018-07-27T16:49:32.077Z,0.90
2018-07-27T16:52:00.895Z,0.90
2018-07-27T16:54:29.688Z,1.37
2018-07-27T16:56:58.498Z,1.00
2018-07-27T16:59:27.298Z,0.90
2018-07-27T17:01:56.063Z,1.23
2018-07-27T17:04:24.848Z,0.87
2018-07-27T17:06:53.627Z,1.20
2018-07-27T17:09:22.468Z,1.23
2018-07-27T17:11:51.236Z,0.70
2018-07-27T17:14:20.031Z,1.20
2018-07-27T17:16:48.841Z,1.23
2018-07-27T17:19:17.637Z,1.00
2018-07-27T17:21:46.446Z,1.10
2018-07-27T17:24:15.225Z,1.00
2018-07-27T17:26:44.011Z,1.40
2018-07-27T17:29:12.839Z,1.20
2018-07-27T17:31:41.657Z,1.07
2018-07-27T17:34:10.438Z,1.10
2018-07-27T17:36:39.200Z,1.40
2018-07-27T17:39:10.198Z,1.10
2018-07-27T17:41:39.321Z,1.20
2018-07-27T17:44:08.722Z,1.60
2018-07-27T17:46:37.644Z,1.20
2018-07-27T17:49:06.673Z,1.07
2018-07-27T17:51:35.476Z,1.30
2018-07-27T17:54:04.374Z,1.20
2018-07-27T17:56:33.149Z,1.10
2018-07-27T17:59:01.955Z,1.10
2018-07-27T18:01:30.766Z,1.30
2018-07-27T18:03:59.540Z,1.40
2018-07-27T18:06:28.327Z,1.23
2018-07-27T18:08:57.128Z,1.00
2018-07-27T18:11:25.908Z,1.00
2018-07-27T18:13:54.698Z,0.90
2018-07-27T18:16:23.543Z,1.10
2018-07-27T18:18:52.393Z,1.20
2018-07-27T18:21:21.222Z,0.93
2018-07-27T18:23:50.009Z,1.10
2018-07-27T18:26:18.959Z,1.40
2018-07-27T18:28:47.791Z,0.80
2018-07-27T18:31:16.662Z,1.40
2018-07-27T18:33:45.453Z,1.10
2018-07-27T18:36:14.275Z,0.93
2018-07-27T18:38:43.072Z,1.13
2018-07-27T18:41:11.894Z,1.10
2018-07-27T18:43:40.693Z,1.03
2018-07-27T18:46:09.877Z,1.03
2018-07-27T18:48:38.788Z,1.40
2018-07-27T18:51:07.641Z,1.00
2018-07-27T18:53:36.459Z,1.00
2018-07-27T18:56:05.263Z,1.20
2018-07-27T18:58:34.037Z,1.00
2018-07-27T19:01:03.011Z,1.10
2018-07-27T19:03:31.801Z,1.17
2018-07-27T19:06:00.625Z,1.10
2018-07-27T19:08:29.689Z,0.93
2018-07-27T19:10:58.479Z,1.20
2018-07-27T19:13:27.410Z,1.00
2018-07-27T19:15:56.360Z,1.27
2018-07-27T19:18:25.255Z,1.20
2018-07-27T19:20:54.247Z,0.87
2018-07-27T19:23:23.155Z,0.97
2018-07-27T19:25:51.924Z,0.90
2018-07-27T19:28:20.701Z,0.80
2018-07-27T19:30:50.503Z,0.90
2018-07-27T19:33:19.288Z,0.87
2018-07-27T19:35:48.046Z,0.90
2018-07-27T19:38:16.843Z,0.80
2018-07-27T19:40:45.659Z,1.00
2018-07-27T19:43:14.466Z,0.93
2018-07-27T19:45:43.245Z,0.67
2018-07-27T19:48:12.027Z,0.97
2018-07-27T19:50:40.843Z,1.07
2018-07-27T19:53:09.654Z,0.93
2018-07-27T19:55:38.457Z,0.73
2018-07-27T19:58:07.277Z,0.80
2018-07-27T20:00:36.061Z,1.10
2018-07-27T20:03:04.910Z,0.90
2018-07-27T20:05:33.716Z,0.97
2018-07-27T20:08:02.484Z,0.90
2018-07-27T20:10:31.331Z,1.07
2018-07-27T20:13:00.169Z,1.00
2018-07-27T20:15:29.027Z,1.30
2018-07-27T20:17:57.842Z,1.10
2018-07-27T20:20:26.650Z,1.07
2018-07-27T20:22:55.438Z,0.97
2018-07-27T20:25:24.233Z,1.07
2018-07-27T20:27:53.060Z,1.47
2018-07-27T20:30:21.874Z,2.33
2018-07-27T20:32:50.657Z,1.93
2018-07-27T20:35:19.469Z,2.00
2018-07-27T20:37:48.266Z,1.73
2018-07-27T20:40:17.114Z,1.30
2018-07-27T20:42:45.928Z,1.53
2018-07-27T20:45:14.757Z,2.57
2018-07-27T20:47:43.564Z,2.13
2018-07-27T20:50:12.374Z,2.60
2018-07-27T20:52:41.189Z,3.30
2018-07-27T20:55:09.980Z,3.20
2018-07-27T20:57:38.756Z,2.40
2018-07-27T21:00:11.787Z,2.10
2018-07-27T21:02:41.650Z,2.23
2018-07-27T21:05:10.949Z,2.17
2018-07-27T21:07:40.155Z,1.43
2018-07-27T21:10:09.065Z,1.40
2018-07-27T21:12:37.915Z,1.93
2018-07-27T21:15:06.806Z,1.80
2018-07-27T21:17:35.628Z,1.87
2018-07-27T21:20:05.066Z,1.80
2018-07-27T21:22:33.828Z,1.80
2018-07-27T21:25:02.614Z,1.73
2018-07-27T21:27:31.535Z,1.83
2018-07-27T21:30:00.343Z,1.73
2018-07-27T21:32:29.122Z,1.90
2018-07-27T21:34:57.894Z,1.67
2018-07-27T21:37:26.710Z,1.50
2018-07-27T21:39:55.510Z,1.60
2018-07-27T21:42:24.316Z,1.40
2018-07-27T21:44:53.071Z,1.50
2018-07-27T21:47:21.859Z,1.40
2018-07-27T21:49:50.665Z,1.73
2018-07-27T21:52:19.489Z,1.40
2018-07-27T21:54:48.247Z,1.80
2018-07-27T21:57:17.061Z,1.63
2018-07-27T21:59:45.917Z,1.87
2018-07-27T22:02:14.696Z,2.00
2018-07-27T22:04:43.457Z,1.70
2018-07-27T22:07:12.265Z,1.70
2018-07-27T22:09:41.047Z,1.80
2018-07-27T22:12:09.817Z,1.23
2018-07-27T22:14:38.630Z,1.63
2018-07-27T22:17:07.424Z,1.73
2018-07-27T22:19:36.201Z,1.30
2018-07-27T22:22:05.000Z,1.40
2018-07-27T22:24:33.749Z,1.37
2018-07-27T22:27:02.548Z,1.60
2018-07-27T22:29:31.340Z,1.30
2018-07-27T22:32:00.118Z,1.50
2018-07-27T22:34:28.902Z,1.17
2018-07-27T22:36:57.665Z,1.70
2018-07-27T22:39:26.442Z,1.20
2018-07-27T22:41:55.209Z,1.27
2018-07-27T22:44:23.993Z,1.20
2018-07-27T22:46:52.780Z,1.07
2018-07-27T22:49:21.541Z,1.10
2018-07-27T22:51:50.378Z,1.17
2018-07-27T22:54:19.215Z,1.20
2018-07-27T22:56:48.044Z,1.20
2018-07-27T22:59:16.893Z,1.20
2018-07-27T23:01:45.728Z,1.37
2018-07-27T23:04:14.510Z,1.00
2018-07-27T23:06:43.323Z,1.40
2018-07-27T23:09:12.419Z,1.47
2018-07-27T23:11:41.185Z,1.53
2018-07-27T23:14:09.994Z,1.40
2018-07-27T23:16:38.790Z,1.20
2018-07-27T23:19:07.570Z,1.20
2018-07-27T23:21:36.347Z,1.50
2018-07-27T23:24:05.199Z,1.07
2018-07-27T23:26:33.990Z,1.30
2018-07-27T23:29:02.850Z,1.10
2018-07-27T23:31:31.630Z,1.30
2018-07-27T23:34:00.413Z,1.23
2018-07-27T23:36:29.276Z,1.30
2018-07-27T23:38:58.074Z,1.27
2018-07-27T23:41:26.850Z,1.20
2018-07-27T23:43:55.670Z,1.50
2018-07-27T23:46:24.488Z,1.30
2018-07-27T23:48:53.290Z,1.40
2018-07-27T23:51:22.100Z,1.50
2018-07-27T23:53:50.889Z,1.27
2018-07-27T23:56:19.697Z,1.40
2018-07-27T23:58:48.499Z,1.47
